Tropical Cyclones
[Index]
Main Index Home Page Stock Weather Photos Extreme Storms Discussion Storm News and Storm Chasing Reports Tropical Cyclones / Hurricanes / Typhoons Weather Data and Links Wild Fires / Bushfires Weather Observation Techniques Weather Picture Catalogue Tornado Pictures and Reports Stock Video Footage and DVDs for sale
Season 1990-1991 Tropical Cyclone KELVIN Track Map
Season 1990-1991 Summaries: [BoM-AU] [JTWC-AU] [JTWC-SIO] [JTWC-SPAC] [JTWC-SH]
<<- Previous TC | JTWC 1990-1991 Season | Next TC ->>

click for intensity scale information  Lat/long Grid: Show Hide

 Date Labels: Show Hide

Joint Typhoon Warning Centre Cyclone Data

Name: KELVIN

24 Feb 1991 12:00 UTC to 06 Mar 1991 12:00 UTC

    date/time    lat    long     hPa   cat  kts
1991-02-24 12   12.0   145.0                  25          
1991-02-24 18   13.3   146.5                  25          
1991-02-25 00   14.4   147.9                  35          
1991-02-25 06   15.3   149.1            1     45          
1991-02-25 12   16.0   150.0            1     45          
1991-02-25 18   16.5   150.5            2     55          
1991-02-26 00   16.8   150.8            1     45          
1991-02-26 06   17.3   150.8            1     45          
1991-02-26 12   17.5   150.4            1     45          
1991-02-26 18   17.9   150.0            1     50          
1991-02-27 00   16.3   150.0            1     50          
1991-02-27 06   15.9   150.2            1     45          
1991-02-27 12   15.7   150.3            1     45          
1991-02-27 18   15.5   150.5            1     45          
1991-02-28 00   15.4   150.6            1     45          
1991-02-28 06   15.5   150.8            1     45          
1991-02-28 12   15.5   150.8            1     45          
1991-02-28 18   15.5   150.4                  35          
1991-03-01 00   15.5   150.0                  35          
1991-03-01 06   15.3   149.7                  35          
1991-03-01 12   15.1   149.7                  35          
1991-03-01 18   15.0   150.0                  35          
1991-03-02 00   15.2   150.1                  35          
1991-03-02 06   15.3   150.1            1     40          
1991-03-02 12   15.2   149.9            1     40          
1991-03-02 18   14.9   149.8            1     40          
1991-03-03 00   14.7   150.0            1     45          
1991-03-03 06   14.5   150.2            1     45          
1991-03-03 12   14.4   150.4            1     45          
1991-03-03 18   14.2   150.3            1     45          
1991-03-04 00   14.1   150.2            1     45          
1991-03-04 06   14.0   149.9            1     45          
1991-03-04 12   13.9   149.7            1     45          
1991-03-04 18   13.8   149.5                  35          
1991-03-05 00   13.6   149.4                  35          
1991-03-05 06   13.4   149.4                  35          
1991-03-05 12   13.3   149.5                  35          
1991-03-05 18   13.2   149.8                  35          
1991-03-06 00   13.2   150.1                  30          
1991-03-06 06   13.2   150.7                  30          
1991-03-06 12   12.8   150.9                  25          
Winds are 1-min average.

Tropical cyclone tracks developed by Michael Bath using data from the Joint Typhoon Warning Centre Best Tracks and Google Maps.


[Australian Severe Weather index] [Copyright Notice] [Email Contacts] [Search This Site] [Privacy Policy]
Document: tropical_cyclone_kelvin.htm Updated: 18 September 2016